createdAt,value
2019-02-10T00:01:29.767Z,75.60
2019-02-10T00:06:34.928Z,75.20
2019-02-10T00:11:41.957Z,75.30
2019-02-10T00:16:49.420Z,75.10
2019-02-10T00:21:54.106Z,75.70
2019-02-10T00:26:58.435Z,74.60
2019-02-10T00:32:04.811Z,74.70
2019-02-10T00:37:08.728Z,74.20
2019-02-10T00:42:12.788Z,74.00
2019-02-10T00:47:17.008Z,74.00
2019-02-10T00:52:24.318Z,74.40
2019-02-10T00:57:28.518Z,73.90
2019-02-10T01:02:32.743Z,73.60
2019-02-10T01:07:40.382Z,73.60
2019-02-10T01:12:44.638Z,74.30
2019-02-10T01:17:48.715Z,73.50
2019-02-10T01:22:53.047Z,73.40
2019-02-10T01:27:57.149Z,72.50
2019-02-10T01:33:03.343Z,72.50
2019-02-10T01:38:07.327Z,72.30
2019-02-10T01:43:14.245Z,72.10
2019-02-10T01:48:18.447Z,71.80
2019-02-10T01:53:25.857Z,72.20
2019-02-10T01:58:30.284Z,72.10
2019-02-10T02:03:40.313Z,71.40
2019-02-10T02:08:47.623Z,71.40
2019-02-10T02:13:51.595Z,71.00
2019-02-10T02:18:55.864Z,70.80
2019-02-10T02:23:59.788Z,71.10
2019-02-10T02:29:03.729Z,70.80
2019-02-10T02:34:07.443Z,71.10
2019-02-10T02:39:12.014Z,71.10
2019-02-10T02:44:15.851Z,71.60
2019-02-10T02:49:26.204Z,72.00
2019-02-10T02:54:33.378Z,71.90
2019-02-10T02:59:37.252Z,72.40
2019-02-10T03:04:41.370Z,73.10
2019-02-10T03:09:45.206Z,73.50
2019-02-10T03:14:48.992Z,73.40
2019-02-10T03:19:53.004Z,73.90
2019-02-10T03:24:56.853Z,74.10
2019-02-10T03:30:00.912Z,74.10
2019-02-10T03:35:11.587Z,74.10
2019-02-10T03:40:15.601Z,74.20
2019-02-10T03:45:19.629Z,74.50
2019-02-10T03:50:26.743Z,74.80
2019-02-10T03:55:32.328Z,75.40
2019-02-10T04:00:37.724Z,76.50
2019-02-10T04:05:43.878Z,77.10
2019-02-10T04:10:47.752Z,77.70
2019-02-10T04:15:51.942Z,77.80
2019-02-10T04:20:59.130Z,78.30
2019-02-10T04:26:06.320Z,78.50
2019-02-10T04:31:13.595Z,78.70
2019-02-10T04:36:17.868Z,78.70
2019-02-10T04:41:21.910Z,79.10
2019-02-10T04:46:25.866Z,79.90
2019-02-10T04:51:29.915Z,79.80
2019-02-10T04:56:37.243Z,79.30
2019-02-10T05:01:41.579Z,79.50
2019-02-10T05:06:45.467Z,79.80
2019-02-10T05:11:49.309Z,80.20
2019-02-10T05:16:54.033Z,80.60
2019-02-10T05:22:01.278Z,80.60
2019-02-10T05:27:05.490Z,80.80
2019-02-10T05:32:09.233Z,81.00
2019-02-10T05:37:15.971Z,80.80
2019-02-10T05:42:20.744Z,80.90
2019-02-10T05:47:24.739Z,80.90
2019-02-10T05:52:28.809Z,81.00
2019-02-10T05:57:33.883Z,81.10
2019-02-10T06:02:38.157Z,81.10
2019-02-10T06:07:42.156Z,81.10
2019-02-10T06:12:50.575Z,81.30
2019-02-10T06:17:54.605Z,81.30
2019-02-10T06:22:58.600Z,81.30
2019-02-10T06:28:05.294Z,81.40
2019-02-10T06:33:10.982Z,81.30
2019-02-10T06:38:26.519Z,81.10
2019-02-10T06:43:34.428Z,81.00
2019-02-10T06:48:38.750Z,80.90
2019-02-10T06:53:42.744Z,80.80
2019-02-10T06:58:48.259Z,80.90
2019-02-10T07:04:19.347Z,81.10
2019-02-10T07:09:26.858Z,81.20
2019-02-10T07:14:33.646Z,81.40
2019-02-10T07:20:32.594Z,81.60
2019-02-10T07:25:54.293Z,81.60
2019-02-10T07:30:58.702Z,81.50
2019-02-10T07:36:29.431Z,81.10
2019-02-10T07:41:56.690Z,81.20
2019-02-10T07:47:35.912Z,81.20
2019-02-10T07:52:56.093Z,81.00
2019-02-10T07:58:32.681Z,80.80
2019-02-10T08:04:09.460Z,80.90
2019-02-10T08:09:35.419Z,80.50
2019-02-10T08:15:18.116Z,80.00
2019-02-10T08:20:58.587Z,80.00
2019-02-10T08:26:14.408Z,79.40
2019-02-10T08:31:34.436Z,78.90
2019-02-10T08:37:13.048Z,78.70
2019-02-10T08:42:56.050Z,78.40
2019-02-10T08:48:32.886Z,78.60
2019-02-10T08:53:40.882Z,78.50
2019-02-10T08:58:44.767Z,79.10
2019-02-10T09:03:50.121Z,79.20
2019-02-10T09:09:02.294Z,80.20
2019-02-10T09:14:02.182Z,81.20
2019-02-10T09:19:06.425Z,83.40
2019-02-10T09:24:10.143Z,83.60
2019-02-10T09:29:14.352Z,84.80
2019-02-10T09:34:19.675Z,86.20
2019-02-10T09:39:23.794Z,87.30
2019-02-10T09:44:27.742Z,88.00
2019-02-10T09:49:32.002Z,88.80
2019-02-10T09:54:36.403Z,89.70
2019-02-10T09:59:40.521Z,90.30
2019-02-10T10:04:44.276Z,90.70
2019-02-10T10:09:48.327Z,91.00
2019-02-10T10:14:52.167Z,91.20
2019-02-10T10:19:55.979Z,91.40
2019-02-10T10:25:00.701Z,91.70
2019-02-10T10:30:06.531Z,91.70
2019-02-10T10:35:12.771Z,92.00
2019-02-10T10:40:17.016Z,92.30
2019-02-10T10:50:25.289Z,92.30
2019-02-10T10:55:29.212Z,92.40
2019-02-10T11:00:33.024Z,92.60
2019-02-10T11:36:46.250Z,92.60
2019-02-10T11:46:53.580Z,92.90
2019-02-10T12:07:07.907Z,93.20
2019-02-10T12:17:15.215Z,93.10
2019-02-10T12:22:18.925Z,93.10
2019-02-10T12:37:32.517Z,93.50
2019-02-10T12:42:35.471Z,93.40
2019-02-10T12:47:39.535Z,93.50
2019-02-10T12:52:43.635Z,93.40
